Terminal Aerodrome Forecast
Issued by NWS

Home | Current Version | Previous Version | Text Only | Print | Product List | Glossary On
Versions: 1 2 3 4 5 6 7 8 9 10 11 12 13 14 15 16 17
000
FTUS42 KMLB 210520
TAFFPR
TAF
KFPR 210520Z 2106/2206 10010KT P6SM BKN050
     FM211200 11008KT P6SM VCSH BKN040 OVC080
     FM211500 12011KT 5SM -RA BKN035 OVC050
      TEMPO 2116/2120 3SM RA BR BKN020 OVC040
     FM212200 13006KT 5SM -RA BR SCT030 BKN070
     FM220100 VRB03KT P6SM FEW030 SCT070=

USA.gov is the U.S. government's official web portal to all federal, state and local government web resources and services.